createdAt,value
2023-03-01T00:01:32.118Z,142.97
2023-03-01T00:04:01.167Z,149.10
2023-03-01T00:06:29.625Z,140.33
2023-03-01T00:08:57.754Z,176.57
2023-03-01T00:11:28.442Z,163.57
2023-03-01T00:13:58.718Z,165.20
2023-03-01T00:16:28.839Z,170.87
2023-03-01T00:18:57.189Z,155.47
2023-03-01T00:21:26.001Z,169.27
2023-03-01T00:23:54.168Z,159.67
2023-03-01T00:26:23.565Z,164.60
2023-03-01T00:28:53.137Z,179.27
2023-03-01T00:31:23.140Z,183.63
2023-03-01T00:33:53.920Z,194.70
2023-03-01T00:36:21.626Z,190.03
2023-03-01T00:38:49.226Z,207.63
2023-03-01T00:41:18.758Z,256.90
2023-03-01T00:43:47.078Z,203.47
2023-03-01T00:46:18.561Z,201.10
2023-03-01T00:48:46.447Z,186.20
2023-03-01T00:51:16.048Z,239.60
2023-03-01T00:53:44.497Z,212.43
2023-03-01T00:56:14.488Z,208.20
2023-03-01T00:58:42.404Z,242.70
2023-03-01T01:01:18.403Z,234.27
2023-03-01T01:03:49.539Z,223.47
2023-03-01T01:06:19.042Z,225.97
2023-03-01T01:08:46.843Z,210.87
2023-03-01T01:11:14.924Z,212.63
2023-03-01T01:13:43.351Z,213.17
2023-03-01T01:16:10.989Z,217.57
2023-03-01T01:18:38.661Z,217.47
2023-03-01T01:21:09.626Z,212.10
2023-03-01T01:23:38.621Z,212.53
2023-03-01T01:26:08.230Z,211.87
2023-03-01T01:28:36.308Z,217.43
2023-03-01T01:31:03.999Z,219.17
2023-03-01T01:33:32.049Z,233.40
2023-03-01T01:35:59.656Z,208.17
2023-03-01T01:38:28.647Z,212.50
2023-03-01T01:40:56.366Z,259.73
2023-03-01T01:43:26.847Z,204.47
2023-03-01T01:45:58.529Z,192.57
2023-03-01T01:48:41.191Z,212.40
2023-03-01T01:51:13.608Z,222.70
2023-03-01T01:53:45.402Z,191.23
2023-03-01T01:56:15.179Z,197.37
2023-03-01T01:58:44.701Z,213.73
2023-03-01T02:01:12.789Z,240.77
2023-03-01T02:03:44.788Z,282.80
2023-03-01T02:06:19.121Z,208.97
2023-03-01T02:08:50.737Z,207.97
2023-03-01T02:11:20.421Z,192.57
2023-03-01T02:13:50.090Z,214.23
2023-03-01T02:16:18.695Z,217.00
2023-03-01T02:18:47.413Z,234.87
2023-03-01T02:21:34.142Z,205.03
2023-03-01T02:24:19.272Z,211.17
2023-03-01T02:26:53.467Z,206.00
2023-03-01T02:29:23.039Z,314.73
2023-03-01T02:31:53.264Z,220.07
2023-03-01T02:34:26.069Z,226.77
2023-03-01T02:36:58.532Z,214.50
2023-03-01T02:39:28.629Z,216.73
2023-03-01T02:41:58.373Z,225.57
2023-03-01T02:44:27.721Z,224.77
2023-03-01T02:46:59.592Z,194.87
2023-03-01T02:49:28.972Z,210.53
2023-03-01T02:52:23.970Z,215.50
2023-03-01T02:54:58.235Z,227.90
2023-03-01T02:57:28.315Z,213.77
2023-03-01T02:59:59.437Z,219.03
2023-03-01T03:02:37.664Z,197.67
2023-03-01T03:05:09.331Z,200.50
2023-03-01T03:07:38.748Z,216.37
2023-03-01T03:10:09.949Z,214.57
2023-03-01T03:12:37.530Z,204.53
2023-03-01T03:15:09.796Z,194.47
2023-03-01T03:17:38.373Z,197.30
2023-03-01T03:20:11.798Z,200.70
2023-03-01T03:22:40.361Z,215.43
2023-03-01T03:25:11.310Z,217.80
2023-03-01T03:27:39.512Z,216.73
2023-03-01T03:30:13.228Z,221.43
2023-03-01T03:32:40.938Z,208.43
2023-03-01T03:35:10.928Z,217.00
2023-03-01T03:37:56.441Z,219.53
2023-03-01T03:40:24.036Z,220.50
2023-03-01T03:42:51.687Z,216.27
2023-03-01T03:45:21.156Z,223.07
2023-03-01T03:47:48.751Z,212.90
2023-03-01T03:50:18.155Z,239.10
2023-03-01T03:52:45.946Z,210.80
2023-03-01T03:55:14.814Z,215.47
2023-03-01T03:57:43.660Z,214.90
2023-03-01T04:00:13.997Z,219.90
2023-03-01T04:02:44.252Z,221.97
2023-03-01T04:05:13.608Z,229.53
2023-03-01T04:07:41.216Z,209.40
2023-03-01T04:10:15.779Z,204.27
2023-03-01T04:12:44.159Z,244.30
2023-03-01T04:15:16.743Z,298.70
2023-03-01T04:17:47.476Z,203.10
2023-03-01T04:20:18.250Z,203.43
2023-03-01T04:22:47.868Z,193.87
2023-03-01T04:25:16.326Z,248.37
2023-03-01T04:27:43.916Z,194.07
2023-03-01T04:30:12.580Z,181.67
2023-03-01T04:32:40.197Z,185.80
2023-03-01T04:35:10.346Z,179.53
2023-03-01T04:37:38.001Z,186.37
2023-03-01T04:40:13.923Z,176.37
2023-03-01T04:42:41.666Z,176.10
2023-03-01T04:45:14.034Z,169.23
2023-03-01T04:47:43.676Z,181.70
2023-03-01T04:50:15.590Z,176.10
2023-03-01T04:52:43.746Z,180.03
2023-03-01T04:55:12.257Z,167.10
2023-03-01T04:57:40.261Z,176.67
2023-03-01T05:00:20.930Z,171.10
2023-03-01T05:02:55.124Z,172.00
2023-03-01T05:05:27.833Z,193.40
2023-03-01T05:07:56.927Z,183.27
2023-03-01T05:10:25.503Z,163.40
2023-03-01T05:12:54.279Z,159.67
2023-03-01T05:15:22.858Z,207.30
2023-03-01T05:17:50.736Z,168.40
2023-03-01T05:20:18.447Z,158.80
2023-03-01T05:22:47.360Z,154.50
2023-03-01T05:25:15.706Z,202.03
2023-03-01T05:27:43.309Z,153.90
2023-03-01T05:30:16.088Z,160.37
2023-03-01T05:32:45.571Z,159.03
2023-03-01T05:35:15.126Z,159.27
2023-03-01T05:37:44.125Z,157.97
2023-03-01T05:40:17.396Z,179.53
2023-03-01T05:42:45.881Z,157.87
2023-03-01T05:45:15.014Z,136.87
2023-03-01T05:47:44.662Z,145.13
2023-03-01T05:50:14.605Z,141.77
2023-03-01T05:52:42.525Z,140.80
2023-03-01T05:55:11.143Z,154.63
2023-03-01T05:57:40.089Z,142.20
2023-03-01T06:00:09.141Z,139.17
2023-03-01T06:02:36.978Z,137.57
2023-03-01T06:05:04.918Z,123.60
2023-03-01T06:07:33.336Z,177.47
2023-03-01T06:10:01.094Z,127.47
2023-03-01T06:12:32.485Z,128.07
2023-03-01T06:15:01.515Z,127.20
2023-03-01T06:17:31.486Z,152.10
2023-03-01T06:19:59.153Z,121.77
2023-03-01T06:22:26.782Z,118.93
2023-03-01T06:24:54.421Z,121.73
2023-03-01T06:27:22.033Z,124.53
2023-03-01T06:29:49.874Z,105.93
2023-03-01T06:32:19.478Z,105.60
2023-03-01T06:34:47.699Z,108.13
2023-03-01T06:37:15.415Z,98.30
2023-03-01T06:39:43.012Z,97.37
2023-03-01T06:42:11.884Z,101.13
2023-03-01T06:44:39.888Z,93.83
2023-03-01T06:47:07.561Z,85.90
2023-03-01T06:49:36.503Z,92.00
2023-03-01T06:52:04.561Z,85.23
2023-03-01T06:54:32.236Z,84.57
2023-03-01T06:56:59.950Z,87.80
2023-03-01T06:59:27.706Z,80.40
2023-03-01T07:01:55.305Z,94.43
2023-03-01T07:04:22.859Z,152.63
2023-03-01T07:06:56.052Z,97.13
2023-03-01T07:09:24.167Z,91.20
2023-03-01T07:11:52.054Z,93.53
2023-03-01T07:14:20.710Z,87.80
2023-03-01T07:16:48.784Z,88.97
2023-03-01T07:19:16.374Z,83.90
2023-03-01T07:21:44.032Z,78.37
2023-03-01T07:24:13.371Z,74.37
2023-03-01T07:26:41.033Z,78.07
2023-03-01T07:29:09.864Z,85.70
2023-03-01T07:31:38.233Z,76.33
2023-03-01T07:34:05.862Z,74.97
2023-03-01T07:36:33.816Z,69.20
2023-03-01T07:39:03.303Z,64.13
2023-03-01T07:41:32.653Z,61.40
2023-03-01T07:44:00.674Z,58.77
2023-03-01T07:46:28.387Z,53.77
2023-03-01T07:48:56.072Z,54.13
2023-03-01T07:51:23.656Z,52.73
2023-03-01T07:53:51.341Z,46.67
2023-03-01T07:56:19.719Z,45.93
2023-03-01T07:58:50.654Z,45.50
2023-03-01T08:01:20.351Z,38.57
2023-03-01T08:03:48.288Z,40.10
2023-03-01T08:06:18.203Z,37.73
2023-03-01T08:08:46.732Z,40.20
2023-03-01T08:11:16.191Z,35.73
2023-03-01T08:13:44.826Z,34.00
2023-03-01T08:16:15.811Z,35.80
2023-03-01T08:18:44.369Z,34.03
2023-03-01T08:21:13.630Z,31.17
2023-03-01T08:23:41.875Z,29.27
2023-03-01T08:26:12.906Z,31.23
2023-03-01T08:28:41.168Z,28.73
2023-03-01T08:31:18.158Z,30.60
2023-03-01T08:33:51.350Z,29.27
2023-03-01T08:36:19.847Z,29.90
2023-03-01T08:38:47.819Z,27.03
2023-03-01T08:41:15.474Z,28.70
2023-03-01T08:43:43.152Z,28.20
2023-03-01T08:46:11.377Z,29.30
2023-03-01T08:48:41.247Z,28.30
2023-03-01T08:51:10.482Z,27.43
2023-03-01T08:53:38.059Z,27.63
2023-03-01T08:56:06.344Z,26.60
2023-03-01T08:58:34.335Z,26.73
2023-03-01T09:01:02.207Z,27.33
2023-03-01T09:03:30.663Z,27.27
2023-03-01T09:06:05.118Z,26.33
2023-03-01T09:08:36.021Z,26.03
2023-03-01T09:11:04.351Z,25.77
2023-03-01T09:13:32.978Z,26.60
2023-03-01T09:16:01.194Z,27.10
2023-03-01T09:18:29.260Z,25.20
2023-03-01T09:21:08.317Z,27.13
2023-03-01T09:23:37.259Z,26.77
2023-03-01T09:26:05.145Z,26.90
2023-03-01T09:28:32.870Z,27.17
2023-03-01T09:31:01.307Z,26.90
2023-03-01T09:33:29.863Z,26.60
2023-03-01T09:36:01.159Z,26.83
2023-03-01T09:38:30.473Z,26.33
2023-03-01T09:40:58.219Z,26.60
2023-03-01T09:43:32.129Z,26.20
2023-03-01T09:46:05.384Z,27.60
2023-03-01T09:48:39.574Z,27.53
2023-03-01T09:51:14.853Z,28.40
2023-03-01T09:53:43.884Z,28.37
2023-03-01T09:56:21.875Z,26.70
2023-03-01T09:58:55.171Z,27.37
2023-03-01T10:01:35.553Z,28.67
2023-03-01T10:04:15.190Z,26.70
2023-03-01T10:06:47.571Z,26.47
2023-03-01T10:09:18.944Z,27.53
2023-03-01T10:11:50.758Z,26.23
2023-03-01T10:14:34.890Z,26.23
2023-03-01T10:17:05.577Z,27.20
2023-03-01T10:19:35.824Z,26.07
2023-03-01T10:22:11.375Z,27.77
2023-03-01T10:24:40.402Z,28.50
2023-03-01T10:27:13.589Z,28.63
2023-03-01T10:29:48.080Z,27.73
2023-03-01T10:32:16.216Z,27.80
2023-03-01T10:34:44.073Z,27.50
2023-03-01T10:37:14.759Z,27.43
2023-03-01T10:39:59.518Z,25.90
2023-03-01T10:42:33.082Z,24.77
2023-03-01T10:45:16.091Z,25.77
2023-03-01T10:47:43.733Z,25.77
2023-03-01T10:50:21.615Z,26.57
2023-03-01T10:52:59.742Z,25.47
2023-03-01T10:55:35.620Z,27.37
2023-03-01T10:58:20.080Z,27.07
2023-03-01T11:00:49.849Z,26.77
2023-03-01T11:03:23.014Z,24.97
2023-03-01T11:06:00.216Z,24.73
2023-03-01T11:08:35.023Z,25.20
2023-03-01T11:11:15.085Z,25.40
2023-03-01T11:13:52.873Z,25.30
2023-03-01T11:16:30.365Z,25.80
2023-03-01T11:18:59.777Z,28.87
2023-03-01T11:21:31.171Z,27.23
2023-03-01T11:24:02.086Z,25.20
2023-03-01T11:26:37.943Z,25.67
2023-03-01T11:29:09.447Z,26.10
2023-03-01T11:31:40.443Z,27.00
2023-03-01T11:34:15.913Z,26.13
2023-03-01T11:36:50.036Z,26.17
2023-03-01T11:39:27.975Z,26.00
2023-03-01T11:42:18.509Z,25.83
2023-03-01T11:44:50.045Z,24.63
2023-03-01T11:47:30.017Z,23.83
2023-03-01T11:50:16.937Z,25.03
2023-03-01T11:52:56.925Z,25.30
2023-03-01T11:55:38.117Z,25.13
2023-03-01T11:58:36.548Z,27.27
2023-03-01T12:01:22.164Z,25.77
2023-03-01T12:04:26.518Z,27.70
2023-03-01T12:06:59.414Z,26.70
2023-03-01T12:09:47.830Z,28.23
2023-03-01T12:12:39.684Z,26.67
2023-03-01T12:15:44.611Z,28.27
2023-03-01T12:18:40.487Z,27.70
2023-03-01T12:21:19.321Z,27.77
2023-03-01T12:24:12.226Z,29.70
2023-03-01T12:26:55.448Z,33.07
2023-03-01T12:29:29.382Z,31.60
2023-03-01T12:32:14.464Z,32.50
2023-03-01T12:34:57.841Z,35.33
2023-03-01T12:37:38.730Z,35.70
2023-03-01T12:40:37.805Z,35.90
2023-03-01T12:43:19.760Z,36.00
2023-03-01T12:46:08.117Z,34.03
2023-03-01T12:48:44.891Z,32.80
2023-03-01T12:51:16.763Z,32.83
2023-03-01T12:53:48.980Z,33.73
2023-03-01T12:56:19.976Z,31.33
2023-03-01T12:58:58.778Z,31.33
2023-03-01T13:01:38.666Z,32.43
2023-03-01T13:04:29.254Z,31.97
2023-03-01T13:07:06.183Z,35.13
2023-03-01T13:09:42.656Z,35.77
2023-03-01T13:12:43.566Z,33.53
2023-03-01T13:15:30.079Z,32.50
2023-03-01T13:17:59.297Z,33.10
2023-03-01T13:20:33.630Z,33.60
2023-03-01T13:23:08.419Z,35.00
2023-03-01T13:25:42.534Z,36.50
2023-03-01T13:28:41.602Z,35.07
2023-03-01T13:31:11.041Z,31.30
2023-03-01T13:33:47.915Z,30.43
2023-03-01T13:36:50.732Z,29.70
2023-03-01T13:39:34.387Z,30.83
2023-03-01T13:42:02.447Z,30.47
2023-03-01T13:44:34.445Z,29.47
2023-03-01T13:47:10.475Z,30.50
2023-03-01T13:49:46.655Z,29.70
2023-03-01T13:52:36.652Z,27.90
2023-03-01T13:55:08.045Z,29.27
2023-03-01T13:57:40.018Z,29.50
2023-03-01T14:00:09.209Z,29.00
2023-03-01T14:02:37.689Z,28.07
2023-03-01T14:05:05.906Z,31.20
2023-03-01T14:07:37.649Z,30.00
2023-03-01T14:10:08.660Z,31.27
2023-03-01T14:12:47.576Z,32.60
2023-03-01T14:15:22.034Z,32.17
2023-03-01T14:17:57.980Z,32.23
2023-03-01T14:20:27.688Z,32.07
2023-03-01T14:22:59.191Z,34.87
2023-03-01T14:25:32.820Z,35.97
2023-03-01T14:28:06.149Z,35.27
2023-03-01T14:30:38.642Z,39.83
2023-03-01T14:33:09.093Z,39.83
2023-03-01T14:35:38.436Z,40.70
2023-03-01T14:38:07.424Z,42.07
2023-03-01T14:40:37.155Z,43.13
2023-03-01T14:43:12.661Z,42.63
2023-03-01T14:45:40.975Z,44.33
2023-03-01T14:48:09.752Z,44.00
2023-03-01T14:50:42.691Z,44.07
2023-03-01T14:53:19.908Z,43.20
2023-03-01T14:55:50.622Z,43.33
2023-03-01T14:58:22.548Z,44.30
2023-03-01T15:00:54.265Z,45.33
2023-03-01T15:03:27.880Z,42.77
2023-03-01T15:05:55.914Z,41.27
2023-03-01T15:08:27.061Z,40.43
2023-03-01T15:11:01.047Z,39.47
2023-03-01T15:13:32.837Z,42.67
2023-03-01T15:16:11.508Z,40.67
2023-03-01T15:18:45.146Z,41.33
2023-03-01T15:21:18.994Z,37.87
2023-03-01T15:23:54.438Z,39.50
2023-03-01T15:26:30.770Z,40.00
2023-03-01T15:29:01.094Z,40.37
2023-03-01T15:31:31.632Z,39.03
2023-03-01T15:34:23.154Z,37.70
2023-03-01T15:36:51.678Z,37.00
2023-03-01T15:39:44.183Z,38.23
2023-03-01T15:42:14.398Z,40.07
2023-03-01T15:44:45.840Z,38.90
2023-03-01T15:47:29.698Z,41.40
2023-03-01T15:49:58.901Z,41.47
2023-03-01T15:52:30.808Z,43.20
2023-03-01T15:55:02.157Z,40.37
2023-03-01T15:57:30.184Z,41.13
2023-03-01T15:59:57.847Z,40.37
2023-03-01T16:02:26.203Z,42.07
2023-03-01T16:04:54.666Z,42.00
2023-03-01T16:07:22.349Z,42.07
2023-03-01T16:09:50.056Z,42.80
2023-03-01T16:12:21.363Z,42.23
2023-03-01T16:14:49.810Z,43.23
2023-03-01T16:17:17.506Z,45.60
2023-03-01T16:19:45.131Z,44.17
2023-03-01T16:22:12.918Z,44.70
2023-03-01T16:24:41.828Z,41.50
2023-03-01T16:27:09.430Z,43.90
2023-03-01T16:29:38.739Z,43.33
2023-03-01T16:32:07.011Z,46.10
2023-03-01T16:34:34.825Z,43.23
2023-03-01T16:37:02.392Z,46.83
2023-03-01T16:39:30.061Z,43.43
2023-03-01T16:41:57.843Z,42.23
2023-03-01T16:44:25.548Z,43.23
2023-03-01T16:46:54.502Z,46.90
2023-03-01T16:49:22.116Z,48.33
2023-03-01T16:51:49.862Z,42.60
2023-03-01T16:54:17.650Z,44.80
2023-03-01T16:56:45.267Z,46.77
2023-03-01T16:59:13.084Z,43.53
2023-03-01T17:01:41.612Z,44.20
2023-03-01T17:04:13.017Z,43.40
2023-03-01T17:06:41.052Z,43.50
2023-03-01T17:09:08.726Z,45.00
2023-03-01T17:11:37.569Z,46.13
2023-03-01T17:14:05.277Z,42.03
2023-03-01T17:16:33.160Z,42.77
2023-03-01T17:19:00.865Z,43.60
2023-03-01T17:21:29.950Z,42.80
2023-03-01T17:23:58.933Z,44.33
2023-03-01T17:26:26.682Z,43.53
2023-03-01T17:28:54.354Z,44.43
2023-03-01T17:31:22.914Z,46.83
2023-03-01T17:33:52.332Z,45.07
2023-03-01T17:36:20.204Z,44.63
2023-03-01T17:38:49.740Z,45.37
2023-03-01T17:41:18.741Z,43.80
2023-03-01T17:43:46.467Z,43.73
2023-03-01T17:46:14.912Z,43.93
2023-03-01T17:48:42.605Z,44.60
2023-03-01T17:51:12.568Z,45.43
2023-03-01T17:53:40.263Z,43.10
2023-03-01T17:56:10.163Z,48.37
2023-03-01T17:58:39.325Z,48.23
2023-03-01T18:01:12.602Z,49.47
2023-03-01T18:03:40.963Z,50.17
2023-03-01T18:06:13.626Z,50.93
2023-03-01T18:08:41.231Z,49.53
2023-03-01T18:11:10.339Z,53.27
2023-03-01T18:13:38.277Z,53.57
2023-03-01T18:16:07.347Z,57.30
2023-03-01T18:18:35.172Z,53.90
2023-03-01T18:21:03.664Z,55.73
2023-03-01T18:23:32.449Z,57.57
2023-03-01T18:26:01.747Z,55.27
2023-03-01T18:28:33.537Z,57.90
2023-03-01T18:31:03.635Z,59.80
2023-03-01T18:33:31.435Z,54.50
2023-03-01T18:35:59.250Z,59.03
2023-03-01T18:38:26.930Z,52.33
2023-03-01T18:40:54.608Z,53.00
2023-03-01T18:43:22.302Z,55.50
2023-03-01T18:45:57.709Z,49.50
2023-03-01T18:48:25.718Z,57.77
2023-03-01T18:50:53.405Z,56.03
2023-03-01T18:53:21.053Z,54.57
2023-03-01T18:55:48.812Z,52.90
2023-03-01T18:58:16.433Z,55.00
2023-03-01T19:00:44.026Z,56.80
2023-03-01T19:03:13.006Z,55.87
2023-03-01T19:05:42.277Z,56.47
2023-03-01T19:08:09.991Z,52.93
2023-03-01T19:10:37.614Z,57.73
2023-03-01T19:13:05.238Z,56.43
2023-03-01T19:15:32.904Z,56.07
2023-03-01T19:18:01.920Z,57.20
2023-03-01T19:20:30.958Z,58.33
2023-03-01T19:22:58.601Z,56.57
2023-03-01T19:25:26.279Z,57.53
2023-03-01T19:27:53.898Z,57.73
2023-03-01T19:30:23.285Z,55.33
2023-03-01T19:32:52.208Z,58.23
2023-03-01T19:35:20.114Z,56.50
2023-03-01T19:37:49.231Z,59.37
2023-03-01T19:40:17.057Z,62.57
2023-03-01T19:42:44.641Z,59.93
2023-03-01T19:45:12.902Z,61.23
2023-03-01T19:47:41.261Z,61.03
2023-03-01T19:50:10.091Z,63.60
2023-03-01T19:52:37.713Z,60.47
2023-03-01T19:55:09.979Z,55.63
2023-03-01T19:57:37.852Z,61.37
2023-03-01T20:00:06.561Z,62.03
2023-03-01T20:02:34.238Z,59.83
2023-03-01T20:05:01.969Z,60.40
2023-03-01T20:07:29.616Z,69.70
2023-03-01T20:09:57.226Z,68.43
2023-03-01T20:12:26.256Z,66.50
2023-03-01T20:14:55.460Z,66.47
2023-03-01T20:17:23.211Z,66.10
2023-03-01T20:19:50.953Z,66.97
2023-03-01T20:22:19.213Z,71.67
2023-03-01T20:24:46.975Z,99.23
2023-03-01T20:27:14.642Z,82.37
2023-03-01T20:29:45.816Z,108.10
2023-03-01T20:32:13.997Z,124.33
2023-03-01T20:34:41.626Z,142.00
2023-03-01T20:37:09.863Z,83.07
2023-03-01T20:39:37.557Z,196.13
2023-03-01T20:42:05.246Z,164.93
2023-03-01T20:44:32.857Z,140.20
2023-03-01T20:47:02.072Z,154.50
2023-03-01T20:49:29.755Z,229.53
2023-03-01T20:51:57.391Z,223.93
2023-03-01T20:54:27.796Z,210.63
2023-03-01T20:56:55.605Z,142.50
2023-03-01T20:59:23.861Z,317.70
2023-03-01T21:01:52.145Z,322.83
2023-03-01T21:04:21.882Z,170.13
2023-03-01T21:06:49.512Z,121.03
2023-03-01T21:09:17.334Z,237.27
2023-03-01T21:11:44.978Z,159.63
2023-03-01T21:14:13.159Z,120.67
2023-03-01T21:16:41.189Z,146.13
2023-03-01T21:19:08.926Z,145.93
2023-03-01T21:21:37.899Z,149.60
2023-03-01T21:24:06.489Z,128.37
2023-03-01T21:26:34.721Z,144.33
2023-03-01T21:29:03.471Z,108.87
2023-03-01T21:31:34.016Z,103.90
2023-03-01T21:34:05.050Z,104.90
2023-03-01T21:36:33.727Z,96.63
2023-03-01T21:39:03.101Z,89.47
2023-03-01T21:41:33.087Z,89.17
2023-03-01T21:44:03.063Z,85.40
2023-03-01T21:46:33.835Z,98.73
2023-03-01T21:49:02.578Z,90.60
2023-03-01T21:51:31.318Z,128.40
2023-03-01T21:54:01.168Z,90.47
2023-03-01T21:56:34.435Z,142.13
2023-03-01T21:59:02.678Z,256.07
2023-03-01T22:01:30.421Z,195.87
2023-03-01T22:04:00.159Z,253.93
2023-03-01T22:06:30.720Z,136.63
2023-03-01T22:09:01.025Z,112.20
2023-03-01T22:11:30.417Z,230.27
2023-03-01T22:13:58.055Z,138.40
2023-03-01T22:16:29.183Z,200.63
2023-03-01T22:18:57.865Z,257.97
2023-03-01T22:21:27.067Z,237.83
2023-03-01T22:23:55.884Z,351.90
2023-03-01T22:26:26.817Z,304.43
2023-03-01T22:28:58.396Z,177.20
2023-03-01T22:31:26.993Z,259.17
2023-03-01T22:33:55.476Z,263.97
2023-03-01T22:36:24.191Z,348.00
2023-03-01T22:38:56.184Z,172.67
2023-03-01T22:41:23.803Z,252.03
2023-03-01T22:43:51.455Z,158.90
2023-03-01T22:46:20.872Z,260.90
2023-03-01T22:48:49.153Z,172.13
2023-03-01T22:51:17.254Z,294.87
2023-03-01T22:53:45.074Z,350.17
2023-03-01T22:56:15.123Z,172.27
2023-03-01T22:58:43.164Z,432.53
2023-03-01T23:01:12.611Z,211.30
2023-03-01T23:03:41.987Z,300.13
2023-03-01T23:06:10.001Z,290.47
2023-03-01T23:08:37.752Z,305.20
2023-03-01T23:11:11.795Z,429.07
2023-03-01T23:13:40.077Z,550.37
2023-03-01T23:16:09.358Z,266.90
2023-03-01T23:18:37.344Z,527.70
2023-03-01T23:21:11.487Z,412.83
2023-03-01T23:23:39.201Z,322.00
2023-03-01T23:26:07.844Z,288.10
2023-03-01T23:28:36.741Z,382.40
2023-03-01T23:31:06.520Z,362.03
2023-03-01T23:33:37.809Z,292.03
2023-03-01T23:36:06.876Z,295.83
2023-03-01T23:38:35.938Z,402.50
2023-03-01T23:41:03.626Z,500.77
2023-03-01T23:43:33.023Z,290.53
2023-03-01T23:46:01.121Z,310.70
2023-03-01T23:48:28.823Z,516.43
2023-03-01T23:50:56.633Z,495.83
2023-03-01T23:53:24.222Z,456.80
2023-03-01T23:55:55.333Z,415.17
2023-03-01T23:58:28.541Z,471.10
